sensor_id;sensor_type;location;lat;lon;timestamp;P1;durP1;ratioP1;P2;durP2;ratioP2
295;SDS011;132;48.770;9.200;2023-03-03T00:00:00;50.95;;;24.20;;
295;SDS011;132;48.770;9.200;2023-03-03T00:02:38;53.53;;;24.30;;
295;SDS011;132;48.770;9.200;2023-03-03T00:05:04;58.75;;;25.42;;
295;SDS011;132;48.770;9.200;2023-03-03T00:07:31;57.92;;;23.35;;
295;SDS011;132;48.770;9.200;2023-03-03T00:09:58;58.63;;;24.10;;
295;SDS011;132;48.770;9.200;2023-03-03T00:12:25;53.42;;;25.45;;
295;SDS011;132;48.770;9.200;2023-03-03T00:14:54;63.40;;;27.83;;
295;SDS011;132;48.770;9.200;2023-03-03T00:17:22;65.95;;;26.50;;
295;SDS011;132;48.770;9.200;2023-03-03T00:19:50;56.92;;;24.08;;
295;SDS011;132;48.770;9.200;2023-03-03T00:22:30;66.05;;;26.50;;
295;SDS011;132;48.770;9.200;2023-03-03T00:27:52;64.70;;;25.98;;
295;SDS011;132;48.770;9.200;2023-03-03T00:30:22;62.35;;;25.92;;
295;SDS011;132;48.770;9.200;2023-03-03T00:32:50;59.00;;;26.33;;
295;SDS011;132;48.770;9.200;2023-03-03T00:37:55;61.55;;;26.02;;
295;SDS011;132;48.770;9.200;2023-03-03T00:40:24;61.55;;;26.98;;
295;SDS011;132;48.770;9.200;2023-03-03T00:42:53;62.65;;;26.60;;
295;SDS011;132;48.770;9.200;2023-03-03T00:45:31;67.13;;;27.60;;
295;SDS011;132;48.770;9.200;2023-03-03T00:50:48;60.42;;;25.83;;
295;SDS011;132;48.770;9.200;2023-03-03T00:53:17;62.15;;;26.88;;
295;SDS011;132;48.770;9.200;2023-03-03T00:55:46;56.67;;;24.60;;
295;SDS011;132;48.770;9.200;2023-03-03T00:58:14;64.20;;;25.88;;
295;SDS011;132;48.770;9.200;2023-03-03T01:00:43;60.00;;;26.70;;
295;SDS011;132;48.770;9.200;2023-03-03T01:03:17;62.05;;;27.30;;
295;SDS011;132;48.770;9.200;2023-03-03T01:05:45;63.58;;;27.23;;
295;SDS011;132;48.770;9.200;2023-03-03T01:08:12;62.60;;;26.55;;
295;SDS011;132;48.770;9.200;2023-03-03T01:10:41;61.92;;;26.55;;
295;SDS011;132;48.770;9.200;2023-03-03T01:13:13;77.15;;;26.40;;
295;SDS011;132;48.770;9.200;2023-03-03T01:15:39;60.55;;;25.60;;
295;SDS011;132;48.770;9.200;2023-03-03T01:18:06;57.95;;;24.25;;
295;SDS011;132;48.770;9.200;2023-03-03T01:20:35;64.50;;;27.77;;
295;SDS011;132;48.770;9.200;2023-03-03T01:23:02;64.05;;;28.17;;
295;SDS011;132;48.770;9.200;2023-03-03T01:25:28;64.50;;;28.35;;
295;SDS011;132;48.770;9.200;2023-03-03T01:27:55;66.50;;;27.90;;
295;SDS011;132;48.770;9.200;2023-03-03T01:30:22;63.33;;;28.63;;
295;SDS011;132;48.770;9.200;2023-03-03T01:32:48;63.47;;;27.67;;
295;SDS011;132;48.770;9.200;2023-03-03T01:35:15;63.90;;;27.90;;
295;SDS011;132;48.770;9.200;2023-03-03T01:37:41;65.47;;;28.33;;
295;SDS011;132;48.770;9.200;2023-03-03T01:40:12;59.22;;;26.73;;
295;SDS011;132;48.770;9.200;2023-03-03T01:42:43;62.67;;;26.52;;
295;SDS011;132;48.770;9.200;2023-03-03T01:47:45;64.80;;;27.55;;
295;SDS011;132;48.770;9.200;2023-03-03T01:50:14;65.60;;;27.65;;
295;SDS011;132;48.770;9.200;2023-03-03T01:53:05;65.15;;;27.63;;
295;SDS011;132;48.770;9.200;2023-03-03T01:55:41;68.25;;;27.17;;
295;SDS011;132;48.770;9.200;2023-03-03T01:58:11;70.25;;;27.70;;
295;SDS011;132;48.770;9.200;2023-03-03T02:00:52;65.25;;;27.73;;
295;SDS011;132;48.770;9.200;2023-03-03T02:03:21;62.72;;;27.27;;
295;SDS011;132;48.770;9.200;2023-03-03T02:05:49;67.30;;;28.35;;
295;SDS011;132;48.770;9.200;2023-03-03T02:08:19;68.38;;;28.70;;
295;SDS011;132;48.770;9.200;2023-03-03T02:10:48;71.05;;;29.70;;
295;SDS011;132;48.770;9.200;2023-03-03T02:13:16;64.20;;;27.27;;
295;SDS011;132;48.770;9.200;2023-03-03T02:15:44;73.15;;;30.13;;
295;SDS011;132;48.770;9.200;2023-03-03T02:18:14;69.55;;;28.75;;
295;SDS011;132;48.770;9.200;2023-03-03T02:28:33;68.43;;;28.25;;
295;SDS011;132;48.770;9.200;2023-03-03T02:31:05;62.50;;;26.33;;
295;SDS011;132;48.770;9.200;2023-03-03T02:33:38;71.20;;;30.50;;
295;SDS011;132;48.770;9.200;2023-03-03T02:36:09;76.75;;;29.45;;
295;SDS011;132;48.770;9.200;2023-03-03T02:38:45;70.57;;;27.98;;
295;SDS011;132;48.770;9.200;2023-03-03T02:41:42;72.63;;;28.58;;
295;SDS011;132;48.770;9.200;2023-03-03T02:44:14;77.25;;;29.25;;
295;SDS011;132;48.770;9.200;2023-03-03T02:46:44;69.80;;;27.70;;
295;SDS011;132;48.770;9.200;2023-03-03T02:49:13;70.03;;;28.05;;
295;SDS011;132;48.770;9.200;2023-03-03T02:51:43;67.13;;;27.75;;
295;SDS011;132;48.770;9.200;2023-03-03T02:54:11;68.95;;;28.20;;
295;SDS011;132;48.770;9.200;2023-03-03T02:56:38;70.65;;;28.15;;
295;SDS011;132;48.770;9.200;2023-03-03T02:59:05;71.43;;;29.60;;
295;SDS011;132;48.770;9.200;2023-03-03T03:01:37;73.38;;;28.98;;
295;SDS011;132;48.770;9.200;2023-03-03T03:04:18;72.75;;;29.70;;
295;SDS011;132;48.770;9.200;2023-03-03T03:06:53;72.13;;;29.55;;
295;SDS011;132;48.770;9.200;2023-03-03T03:09:21;69.88;;;28.35;;
295;SDS011;132;48.770;9.200;2023-03-03T03:11:51;62.90;;;28.80;;
295;SDS011;132;48.770;9.200;2023-03-03T03:14:21;71.05;;;28.23;;
295;SDS011;132;48.770;9.200;2023-03-03T03:16:48;62.45;;;26.45;;
295;SDS011;132;48.770;9.200;2023-03-03T03:19:15;70.65;;;27.50;;
295;SDS011;132;48.770;9.200;2023-03-03T03:21:43;71.60;;;28.67;;
295;SDS011;132;48.770;9.200;2023-03-03T03:24:10;75.70;;;30.10;;
295;SDS011;132;48.770;9.200;2023-03-03T03:26:40;73.75;;;29.77;;
295;SDS011;132;48.770;9.200;2023-03-03T03:29:13;71.28;;;28.98;;
295;SDS011;132;48.770;9.200;2023-03-03T03:31:39;69.25;;;30.95;;
295;SDS011;132;48.770;9.200;2023-03-03T03:34:08;62.78;;;26.52;;
295;SDS011;132;48.770;9.200;2023-03-03T03:36:34;69.30;;;29.50;;
295;SDS011;132;48.770;9.200;2023-03-03T03:39:03;72.45;;;29.05;;
295;SDS011;132;48.770;9.200;2023-03-03T03:41:32;70.65;;;28.83;;
295;SDS011;132;48.770;9.200;2023-03-03T03:43:58;65.43;;;27.75;;
295;SDS011;132;48.770;9.200;2023-03-03T03:46:25;67.07;;;28.35;;
295;SDS011;132;48.770;9.200;2023-03-03T03:48:52;75.55;;;28.85;;
295;SDS011;132;48.770;9.200;2023-03-03T03:51:20;65.15;;;27.45;;
295;SDS011;132;48.770;9.200;2023-03-03T03:53:46;64.78;;;27.35;;
295;SDS011;132;48.770;9.200;2023-03-03T03:56:13;69.25;;;28.75;;
295;SDS011;132;48.770;9.200;2023-03-03T03:58:41;72.15;;;28.65;;
295;SDS011;132;48.770;9.200;2023-03-03T04:01:11;72.32;;;28.33;;
295;SDS011;132;48.770;9.200;2023-03-03T04:03:43;72.90;;;29.80;;
295;SDS011;132;48.770;9.200;2023-03-03T04:06:14;77.05;;;29.98;;
295;SDS011;132;48.770;9.200;2023-03-03T04:08:41;66.82;;;27.52;;
295;SDS011;132;48.770;9.200;2023-03-03T04:11:10;75.78;;;29.45;;
295;SDS011;132;48.770;9.200;2023-03-03T04:13:38;70.28;;;29.00;;
295;SDS011;132;48.770;9.200;2023-03-03T04:16:06;62.30;;;27.83;;
295;SDS011;132;48.770;9.200;2023-03-03T04:18:34;72.95;;;29.83;;
295;SDS011;132;48.770;9.200;2023-03-03T04:21:02;69.20;;;29.35;;
295;SDS011;132;48.770;9.200;2023-03-03T04:23:29;72.93;;;31.45;;
295;SDS011;132;48.770;9.200;2023-03-03T04:25:55;70.78;;;30.25;;
295;SDS011;132;48.770;9.200;2023-03-03T04:28:22;76.70;;;31.55;;
295;SDS011;132;48.770;9.200;2023-03-03T04:30:51;66.78;;;30.20;;
295;SDS011;132;48.770;9.200;2023-03-03T04:33:19;67.88;;;31.20;;
295;SDS011;132;48.770;9.200;2023-03-03T04:35:46;65.60;;;30.63;;
295;SDS011;132;48.770;9.200;2023-03-03T04:38:12;75.30;;;32.40;;
295;SDS011;132;48.770;9.200;2023-03-03T04:40:40;69.35;;;28.92;;
295;SDS011;132;48.770;9.200;2023-03-03T04:43:07;71.97;;;30.80;;
295;SDS011;132;48.770;9.200;2023-03-03T04:45:34;75.40;;;31.40;;
295;SDS011;132;48.770;9.200;2023-03-03T04:48:02;75.40;;;35.20;;
295;SDS011;132;48.770;9.200;2023-03-03T04:50:29;78.15;;;31.98;;
295;SDS011;132;48.770;9.200;2023-03-03T04:52:56;71.60;;;30.10;;
295;SDS011;132;48.770;9.200;2023-03-03T04:55:23;69.93;;;31.42;;
295;SDS011;132;48.770;9.200;2023-03-03T04:57:49;71.47;;;31.95;;
295;SDS011;132;48.770;9.200;2023-03-03T05:00:16;72.78;;;32.45;;
295;SDS011;132;48.770;9.200;2023-03-03T05:02:43;74.85;;;32.78;;
295;SDS011;132;48.770;9.200;2023-03-03T05:05:12;75.85;;;31.23;;
295;SDS011;132;48.770;9.200;2023-03-03T05:07:38;67.65;;;31.23;;
295;SDS011;132;48.770;9.200;2023-03-03T05:10:06;70.20;;;31.77;;
295;SDS011;132;48.770;9.200;2023-03-03T05:12:32;72.15;;;31.58;;
295;SDS011;132;48.770;9.200;2023-03-03T05:14:59;67.85;;;30.20;;
295;SDS011;132;48.770;9.200;2023-03-03T05:17:26;72.88;;;31.85;;
295;SDS011;132;48.770;9.200;2023-03-03T05:19:52;70.95;;;30.33;;
295;SDS011;132;48.770;9.200;2023-03-03T05:22:18;73.97;;;32.28;;
295;SDS011;132;48.770;9.200;2023-03-03T05:24:45;71.10;;;30.13;;
295;SDS011;132;48.770;9.200;2023-03-03T05:27:16;70.25;;;31.30;;
295;SDS011;132;48.770;9.200;2023-03-03T05:29:43;75.88;;;32.88;;
295;SDS011;132;48.770;9.200;2023-03-03T05:32:09;69.20;;;30.85;;
295;SDS011;132;48.770;9.200;2023-03-03T05:34:36;71.45;;;29.88;;
295;SDS011;132;48.770;9.200;2023-03-03T05:37:02;68.43;;;31.65;;
295;SDS011;132;48.770;9.200;2023-03-03T05:39:31;70.03;;;31.23;;
295;SDS011;132;48.770;9.200;2023-03-03T05:41:58;73.40;;;33.42;;
295;SDS011;132;48.770;9.200;2023-03-03T05:44:25;67.10;;;29.17;;
295;SDS011;132;48.770;9.200;2023-03-03T05:46:52;71.47;;;29.98;;
295;SDS011;132;48.770;9.200;2023-03-03T05:49:18;68.88;;;31.17;;
295;SDS011;132;48.770;9.200;2023-03-03T05:51:45;73.88;;;31.38;;
295;SDS011;132;48.770;9.200;2023-03-03T05:54:11;65.80;;;28.45;;
295;SDS011;132;48.770;9.200;2023-03-03T05:56:38;70.10;;;30.27;;
295;SDS011;132;48.770;9.200;2023-03-03T05:59:04;65.95;;;31.35;;
295;SDS011;132;48.770;9.200;2023-03-03T06:01:31;69.93;;;30.50;;
295;SDS011;132;48.770;9.200;2023-03-03T06:03:58;67.53;;;30.77;;
295;SDS011;132;48.770;9.200;2023-03-03T06:06:24;68.95;;;29.83;;
295;SDS011;132;48.770;9.200;2023-03-03T06:08:50;76.82;;;28.73;;
295;SDS011;132;48.770;9.200;2023-03-03T06:11:18;64.63;;;27.42;;
295;SDS011;132;48.770;9.200;2023-03-03T06:13:45;61.53;;;26.58;;
295;SDS011;132;48.770;9.200;2023-03-03T06:16:11;67.05;;;28.80;;
295;SDS011;132;48.770;9.200;2023-03-03T06:18:38;65.00;;;29.38;;
295;SDS011;132;48.770;9.200;2023-03-03T06:21:04;57.58;;;26.08;;
295;SDS011;132;48.770;9.200;2023-03-03T06:23:30;71.55;;;29.17;;
295;SDS011;132;48.770;9.200;2023-03-03T06:25:57;52.20;;;25.83;;
295;SDS011;132;48.770;9.200;2023-03-03T06:28:23;56.25;;;26.40;;
295;SDS011;132;48.770;9.200;2023-03-03T06:30:53;54.25;;;25.77;;
295;SDS011;132;48.770;9.200;2023-03-03T06:33:21;56.53;;;24.88;;
295;SDS011;132;48.770;9.200;2023-03-03T06:35:48;57.72;;;25.98;;
295;SDS011;132;48.770;9.200;2023-03-03T06:38:19;59.80;;;26.15;;
295;SDS011;132;48.770;9.200;2023-03-03T06:40:46;48.35;;;23.38;;
295;SDS011;132;48.770;9.200;2023-03-03T06:43:12;60.80;;;25.65;;
295;SDS011;132;48.770;9.200;2023-03-03T06:45:39;57.53;;;25.75;;
295;SDS011;132;48.770;9.200;2023-03-03T06:48:05;55.83;;;24.70;;
295;SDS011;132;48.770;9.200;2023-03-03T06:50:32;56.20;;;26.50;;
295;SDS011;132;48.770;9.200;2023-03-03T06:53:01;62.97;;;25.98;;
295;SDS011;132;48.770;9.200;2023-03-03T06:55:35;51.45;;;24.45;;
295;SDS011;132;48.770;9.200;2023-03-03T06:58:04;56.33;;;25.05;;
295;SDS011;132;48.770;9.200;2023-03-03T07:00:43;53.03;;;23.80;;
295;SDS011;132;48.770;9.200;2023-03-03T07:03:11;54.75;;;24.08;;
295;SDS011;132;48.770;9.200;2023-03-03T07:05:43;49.10;;;23.08;;
295;SDS011;132;48.770;9.200;2023-03-03T07:08:17;57.83;;;24.70;;
295;SDS011;132;48.770;9.200;2023-03-03T07:10:46;50.00;;;23.85;;
295;SDS011;132;48.770;9.200;2023-03-03T07:13:23;60.20;;;24.02;;
295;SDS011;132;48.770;9.200;2023-03-03T07:15:52;50.63;;;24.00;;
295;SDS011;132;48.770;9.200;2023-03-03T07:20:50;54.42;;;24.67;;
295;SDS011;132;48.770;9.200;2023-03-03T07:25:49;61.28;;;26.48;;
295;SDS011;132;48.770;9.200;2023-03-03T07:30:54;54.75;;;25.25;;
295;SDS011;132;48.770;9.200;2023-03-03T07:33:34;59.05;;;24.98;;
295;SDS011;132;48.770;9.200;2023-03-03T07:36:18;52.83;;;23.58;;
295;SDS011;132;48.770;9.200;2023-03-03T07:38:54;56.22;;;25.08;;
295;SDS011;132;48.770;9.200;2023-03-03T07:41:23;51.10;;;23.92;;
295;SDS011;132;48.770;9.200;2023-03-03T07:43:50;59.22;;;25.10;;
295;SDS011;132;48.770;9.200;2023-03-03T07:48:48;57.15;;;25.25;;
295;SDS011;132;48.770;9.200;2023-03-03T07:51:19;52.40;;;23.40;;
295;SDS011;132;48.770;9.200;2023-03-03T07:53:47;53.70;;;25.52;;
295;SDS011;132;48.770;9.200;2023-03-03T07:56:14;52.95;;;25.58;;
295;SDS011;132;48.770;9.200;2023-03-03T07:58:47;49.70;;;23.35;;
295;SDS011;132;48.770;9.200;2023-03-03T08:04:21;53.10;;;23.58;;
295;SDS011;132;48.770;9.200;2023-03-03T08:07:18;58.53;;;24.50;;
295;SDS011;132;48.770;9.200;2023-03-03T08:12:41;48.72;;;23.67;;
295;SDS011;132;48.770;9.200;2023-03-03T08:15:19;52.03;;;25.65;;
295;SDS011;132;48.770;9.200;2023-03-03T08:17:48;54.05;;;22.85;;
295;SDS011;132;48.770;9.200;2023-03-03T08:23:18;53.33;;;24.80;;
295;SDS011;132;48.770;9.200;2023-03-03T08:25:46;49.47;;;23.00;;
295;SDS011;132;48.770;9.200;2023-03-03T08:28:14;47.70;;;23.52;;
295;SDS011;132;48.770;9.200;2023-03-03T08:30:41;47.63;;;23.55;;
295;SDS011;132;48.770;9.200;2023-03-03T08:33:08;46.55;;;22.48;;
295;SDS011;132;48.770;9.200;2023-03-03T08:35:34;51.15;;;24.85;;
295;SDS011;132;48.770;9.200;2023-03-03T08:38:01;46.67;;;22.70;;
295;SDS011;132;48.770;9.200;2023-03-03T08:40:28;51.85;;;23.73;;
295;SDS011;132;48.770;9.200;2023-03-03T08:42:56;51.00;;;23.95;;
295;SDS011;132;48.770;9.200;2023-03-03T08:45:23;51.65;;;24.35;;
295;SDS011;132;48.770;9.200;2023-03-03T08:47:50;56.47;;;24.40;;
295;SDS011;132;48.770;9.200;2023-03-03T08:50:16;55.92;;;24.63;;
295;SDS011;132;48.770;9.200;2023-03-03T08:52:43;50.05;;;24.25;;
295;SDS011;132;48.770;9.200;2023-03-03T08:55:10;52.25;;;24.45;;
295;SDS011;132;48.770;9.200;2023-03-03T08:57:36;53.22;;;24.60;;
295;SDS011;132;48.770;9.200;2023-03-03T09:00:07;50.30;;;23.98;;
295;SDS011;132;48.770;9.200;2023-03-03T09:02:35;52.92;;;24.85;;
295;SDS011;132;48.770;9.200;2023-03-03T09:05:02;52.17;;;24.23;;
295;SDS011;132;48.770;9.200;2023-03-03T09:07:29;47.80;;;23.90;;
295;SDS011;132;48.770;9.200;2023-03-03T09:09:56;52.65;;;25.42;;
295;SDS011;132;48.770;9.200;2023-03-03T09:12:26;51.42;;;24.73;;
295;SDS011;132;48.770;9.200;2023-03-03T09:14:55;46.10;;;23.30;;
295;SDS011;132;48.770;9.200;2023-03-03T09:19:57;49.90;;;23.90;;
295;SDS011;132;48.770;9.200;2023-03-03T09:22:27;46.42;;;22.98;;
295;SDS011;132;48.770;9.200;2023-03-03T09:24:56;46.97;;;24.73;;
295;SDS011;132;48.770;9.200;2023-03-03T09:27:26;52.22;;;24.63;;
295;SDS011;132;48.770;9.200;2023-03-03T09:30:11;52.40;;;26.02;;
295;SDS011;132;48.770;9.200;2023-03-03T09:32:41;55.85;;;26.15;;
295;SDS011;132;48.770;9.200;2023-03-03T09:38:01;67.78;;;25.35;;
295;SDS011;132;48.770;9.200;2023-03-03T09:46:43;45.45;;;24.63;;
295;SDS011;132;48.770;9.200;2023-03-03T09:49:28;48.22;;;24.40;;
295;SDS011;132;48.770;9.200;2023-03-03T09:55:14;49.70;;;24.50;;
295;SDS011;132;48.770;9.200;2023-03-03T10:00:54;44.70;;;21.85;;
295;SDS011;132;48.770;9.200;2023-03-03T10:06:10;50.10;;;24.45;;
295;SDS011;132;48.770;9.200;2023-03-03T10:20:22;49.45;;;23.95;;
295;SDS011;132;48.770;9.200;2023-03-03T10:36:24;46.10;;;23.92;;
295;SDS011;132;48.770;9.200;2023-03-03T10:39:20;49.78;;;24.48;;
295;SDS011;132;48.770;9.200;2023-03-03T10:42:09;49.15;;;24.77;;
295;SDS011;132;48.770;9.200;2023-03-03T10:44:53;45.35;;;24.70;;
295;SDS011;132;48.770;9.200;2023-03-03T10:58:14;46.15;;;24.42;;
295;SDS011;132;48.770;9.200;2023-03-03T11:01:11;48.90;;;25.48;;
295;SDS011;132;48.770;9.200;2023-03-03T11:04:10;48.67;;;24.45;;
295;SDS011;132;48.770;9.200;2023-03-03T11:12:27;47.70;;;23.70;;
295;SDS011;132;48.770;9.200;2023-03-03T11:23:05;50.00;;;25.40;;
295;SDS011;132;48.770;9.200;2023-03-03T11:25:56;46.50;;;25.00;;
295;SDS011;132;48.770;9.200;2023-03-03T11:29:01;49.47;;;26.27;;
295;SDS011;132;48.770;9.200;2023-03-03T11:31:54;44.08;;;24.60;;
295;SDS011;132;48.770;9.200;2023-03-03T11:37:11;45.50;;;24.67;;
295;SDS011;132;48.770;9.200;2023-03-03T11:39:48;53.08;;;27.83;;
295;SDS011;132;48.770;9.200;2023-03-03T11:42:31;49.72;;;26.67;;
295;SDS011;132;48.770;9.200;2023-03-03T11:45:17;54.65;;;26.33;;
295;SDS011;132;48.770;9.200;2023-03-03T11:47:54;46.55;;;24.73;;
295;SDS011;132;48.770;9.200;2023-03-03T11:50:46;50.53;;;26.88;;
295;SDS011;132;48.770;9.200;2023-03-03T11:56:56;45.07;;;24.07;;
295;SDS011;132;48.770;9.200;2023-03-03T12:01:28;54.60;;;26.97;;
295;SDS011;132;48.770;9.200;2023-03-03T12:04:08;45.40;;;25.17;;
295;SDS011;132;48.770;9.200;2023-03-03T12:09:52;46.07;;;25.50;;
295;SDS011;132;48.770;9.200;2023-03-03T12:12:26;47.03;;;24.00;;
295;SDS011;132;48.770;9.200;2023-03-03T12:23:16;45.92;;;25.55;;
295;SDS011;132;48.770;9.200;2023-03-03T12:39:07;50.55;;;23.25;;
295;SDS011;132;48.770;9.200;2023-03-03T12:42:12;50.20;;;23.73;;
295;SDS011;132;48.770;9.200;2023-03-03T12:52:44;40.13;;;21.83;;
295;SDS011;132;48.770;9.200;2023-03-03T12:55:43;44.72;;;22.55;;
295;SDS011;132;48.770;9.200;2023-03-03T12:58:41;40.80;;;21.73;;
295;SDS011;132;48.770;9.200;2023-03-03T13:04:33;42.67;;;20.25;;
295;SDS011;132;48.770;9.200;2023-03-03T13:13:26;38.70;;;21.05;;
295;SDS011;132;48.770;9.200;2023-03-03T13:16:27;47.25;;;23.13;;
295;SDS011;132;48.770;9.200;2023-03-03T13:19:11;42.45;;;21.95;;
295;SDS011;132;48.770;9.200;2023-03-03T13:21:58;41.92;;;20.88;;
295;SDS011;132;48.770;9.200;2023-03-03T13:27:12;40.00;;;21.48;;
295;SDS011;132;48.770;9.200;2023-03-03T13:29:42;41.40;;;21.02;;
295;SDS011;132;48.770;9.200;2023-03-03T13:32:20;41.70;;;20.77;;
295;SDS011;132;48.770;9.200;2023-03-03T13:34:57;40.65;;;21.20;;
295;SDS011;132;48.770;9.200;2023-03-03T13:37:46;49.53;;;24.80;;
295;SDS011;132;48.770;9.200;2023-03-03T13:40:18;42.83;;;22.27;;
295;SDS011;132;48.770;9.200;2023-03-03T13:43:35;42.13;;;20.10;;
295;SDS011;132;48.770;9.200;2023-03-03T13:53:57;44.90;;;22.00;;
295;SDS011;132;48.770;9.200;2023-03-03T13:56:33;36.15;;;21.88;;
295;SDS011;132;48.770;9.200;2023-03-03T14:07:17;39.70;;;22.40;;
295;SDS011;132;48.770;9.200;2023-03-03T14:10:25;39.70;;;21.20;;
295;SDS011;132;48.770;9.200;2023-03-03T14:13:01;48.97;;;22.93;;
295;SDS011;132;48.770;9.200;2023-03-03T14:15:32;42.60;;;22.27;;
295;SDS011;132;48.770;9.200;2023-03-03T14:20:57;48.08;;;22.13;;
295;SDS011;132;48.770;9.200;2023-03-03T14:26:22;41.83;;;23.17;;
295;SDS011;132;48.770;9.200;2023-03-03T14:28:49;44.60;;;22.57;;
295;SDS011;132;48.770;9.200;2023-03-03T14:31:38;41.83;;;23.15;;
295;SDS011;132;48.770;9.200;2023-03-03T14:34:13;46.03;;;23.47;;
295;SDS011;132;48.770;9.200;2023-03-03T14:39:49;49.73;;;23.00;;
295;SDS011;132;48.770;9.200;2023-03-03T14:42:46;42.77;;;22.13;;
295;SDS011;132;48.770;9.200;2023-03-03T14:45:37;43.77;;;21.90;;
295;SDS011;132;48.770;9.200;2023-03-03T14:48:18;42.30;;;21.90;;
295;SDS011;132;48.770;9.200;2023-03-03T14:50:53;43.30;;;19.98;;
295;SDS011;132;48.770;9.200;2023-03-03T14:56:22;49.00;;;23.00;;
295;SDS011;132;48.770;9.200;2023-03-03T14:59:35;49.37;;;24.20;;
295;SDS011;132;48.770;9.200;2023-03-03T15:01:56;43.67;;;22.43;;
295;SDS011;132;48.770;9.200;2023-03-03T15:04:24;47.10;;;23.77;;
295;SDS011;132;48.770;9.200;2023-03-03T15:06:53;39.23;;;20.67;;
295;SDS011;132;48.770;9.200;2023-03-03T15:09:26;43.87;;;24.17;;
295;SDS011;132;48.770;9.200;2023-03-03T15:17:36;53.00;;;23.50;;
295;SDS011;132;48.770;9.200;2023-03-03T15:25:32;46.20;;;23.27;;
295;SDS011;132;48.770;9.200;2023-03-03T15:33:46;45.97;;;24.02;;
295;SDS011;132;48.770;9.200;2023-03-03T15:39:12;43.30;;;22.50;;
295;SDS011;132;48.770;9.200;2023-03-03T15:42:03;46.67;;;21.20;;
295;SDS011;132;48.770;9.200;2023-03-03T15:55:58;45.28;;;23.00;;
295;SDS011;132;48.770;9.200;2023-03-03T15:58:39;44.42;;;22.25;;
295;SDS011;132;48.770;9.200;2023-03-03T16:01:37;45.60;;;23.23;;
295;SDS011;132;48.770;9.200;2023-03-03T16:04:13;43.55;;;22.35;;
295;SDS011;132;48.770;9.200;2023-03-03T16:06:47;46.08;;;23.55;;
295;SDS011;132;48.770;9.200;2023-03-03T16:25:52;47.85;;;24.00;;
295;SDS011;132;48.770;9.200;2023-03-03T16:31:52;43.22;;;21.65;;
295;SDS011;132;48.770;9.200;2023-03-03T16:34:24;42.35;;;21.75;;
295;SDS011;132;48.770;9.200;2023-03-03T16:42:27;42.97;;;21.20;;
295;SDS011;132;48.770;9.200;2023-03-03T16:45:08;49.63;;;25.10;;
295;SDS011;132;48.770;9.200;2023-03-03T16:55:45;51.58;;;23.55;;
295;SDS011;132;48.770;9.200;2023-03-03T17:06:15;49.03;;;23.42;;
295;SDS011;132;48.770;9.200;2023-03-03T17:33:08;48.03;;;22.92;;
295;SDS011;132;48.770;9.200;2023-03-03T17:35:58;51.05;;;23.67;;
295;SDS011;132;48.770;9.200;2023-03-03T17:38:41;47.83;;;22.00;;
295;SDS011;132;48.770;9.200;2023-03-03T17:44:32;52.30;;;23.75;;
295;SDS011;132;48.770;9.200;2023-03-03T17:47:08;49.50;;;23.98;;
295;SDS011;132;48.770;9.200;2023-03-03T17:49:44;57.03;;;25.08;;
295;SDS011;132;48.770;9.200;2023-03-03T17:55:16;53.63;;;24.40;;
295;SDS011;132;48.770;9.200;2023-03-03T18:20:06;58.95;;;26.55;;
295;SDS011;132;48.770;9.200;2023-03-03T18:22:48;50.47;;;23.58;;
295;SDS011;132;48.770;9.200;2023-03-03T18:25:23;60.72;;;26.45;;
295;SDS011;132;48.770;9.200;2023-03-03T18:30:27;55.05;;;24.65;;
295;SDS011;132;48.770;9.200;2023-03-03T18:48:48;49.08;;;23.73;;
295;SDS011;132;48.770;9.200;2023-03-03T19:04:41;52.45;;;25.27;;
295;SDS011;132;48.770;9.200;2023-03-03T19:17:59;55.95;;;26.35;;
295;SDS011;132;48.770;9.200;2023-03-03T19:20:39;53.83;;;25.83;;
295;SDS011;132;48.770;9.200;2023-03-03T19:23:11;53.92;;;25.90;;
295;SDS011;132;48.770;9.200;2023-03-03T19:25:40;56.90;;;26.30;;
295;SDS011;132;48.770;9.200;2023-03-03T19:31:14;54.00;;;25.35;;
295;SDS011;132;48.770;9.200;2023-03-03T19:36:40;56.03;;;25.42;;
295;SDS011;132;48.770;9.200;2023-03-03T19:39:50;55.67;;;25.98;;
295;SDS011;132;48.770;9.200;2023-03-03T19:42:44;56.22;;;24.38;;
295;SDS011;132;48.770;9.200;2023-03-03T19:56:16;55.88;;;26.65;;
295;SDS011;132;48.770;9.200;2023-03-03T19:58:50;57.33;;;25.92;;
295;SDS011;132;48.770;9.200;2023-03-03T20:07:14;51.42;;;24.40;;
295;SDS011;132;48.770;9.200;2023-03-03T20:15:29;47.83;;;22.52;;
295;SDS011;132;48.770;9.200;2023-03-03T20:21:27;53.75;;;24.70;;
295;SDS011;132;48.770;9.200;2023-03-03T20:26:58;54.78;;;25.55;;
295;SDS011;132;48.770;9.200;2023-03-03T20:32:33;50.65;;;22.50;;
295;SDS011;132;48.770;9.200;2023-03-03T20:48:58;49.05;;;23.05;;
295;SDS011;132;48.770;9.200;2023-03-03T20:57:22;52.65;;;24.25;;
295;SDS011;132;48.770;9.200;2023-03-03T21:02:36;50.53;;;22.60;;
295;SDS011;132;48.770;9.200;2023-03-03T21:05:21;51.22;;;23.33;;
295;SDS011;132;48.770;9.200;2023-03-03T21:07:55;47.45;;;22.40;;
295;SDS011;132;48.770;9.200;2023-03-03T21:10:36;54.78;;;23.85;;
295;SDS011;132;48.770;9.200;2023-03-03T21:15:54;50.25;;;23.17;;
295;SDS011;132;48.770;9.200;2023-03-03T21:18:26;48.30;;;23.30;;
295;SDS011;132;48.770;9.200;2023-03-03T21:20:53;59.97;;;25.45;;
295;SDS011;132;48.770;9.200;2023-03-03T21:23:19;52.17;;;23.17;;
295;SDS011;132;48.770;9.200;2023-03-03T21:25:48;48.65;;;22.40;;
295;SDS011;132;48.770;9.200;2023-03-03T21:28:20;48.25;;;22.77;;
295;SDS011;132;48.770;9.200;2023-03-03T21:36:10;49.30;;;23.00;;
295;SDS011;132;48.770;9.200;2023-03-03T21:38:45;47.35;;;22.77;;
295;SDS011;132;48.770;9.200;2023-03-03T21:41:13;48.60;;;22.45;;
295;SDS011;132;48.770;9.200;2023-03-03T21:43:42;50.92;;;23.35;;
295;SDS011;132;48.770;9.200;2023-03-03T21:46:17;51.25;;;24.08;;
295;SDS011;132;48.770;9.200;2023-03-03T21:48:48;48.50;;;22.08;;
295;SDS011;132;48.770;9.200;2023-03-03T21:51:15;44.00;;;21.38;;
295;SDS011;132;48.770;9.200;2023-03-03T21:53:42;43.35;;;20.40;;
295;SDS011;132;48.770;9.200;2023-03-03T21:56:09;46.17;;;22.25;;
295;SDS011;132;48.770;9.200;2023-03-03T21:58:39;51.28;;;23.02;;
295;SDS011;132;48.770;9.200;2023-03-03T22:01:06;47.50;;;22.45;;
295;SDS011;132;48.770;9.200;2023-03-03T22:03:32;45.72;;;21.02;;
295;SDS011;132;48.770;9.200;2023-03-03T22:05:59;48.20;;;21.48;;
295;SDS011;132;48.770;9.200;2023-03-03T22:08:27;51.13;;;21.20;;
295;SDS011;132;48.770;9.200;2023-03-03T22:10:53;47.10;;;22.90;;
295;SDS011;132;48.770;9.200;2023-03-03T22:13:21;49.22;;;23.40;;
295;SDS011;132;48.770;9.200;2023-03-03T22:15:49;50.35;;;23.10;;
295;SDS011;132;48.770;9.200;2023-03-03T22:18:16;50.58;;;23.17;;
295;SDS011;132;48.770;9.200;2023-03-03T22:20:43;49.13;;;22.27;;
295;SDS011;132;48.770;9.200;2023-03-03T22:23:11;47.10;;;22.08;;
295;SDS011;132;48.770;9.200;2023-03-03T22:25:38;49.35;;;22.52;;
295;SDS011;132;48.770;9.200;2023-03-03T22:28:05;49.90;;;22.92;;
295;SDS011;132;48.770;9.200;2023-03-03T22:30:32;50.22;;;22.10;;
295;SDS011;132;48.770;9.200;2023-03-03T22:32:58;44.40;;;21.65;;
295;SDS011;132;48.770;9.200;2023-03-03T22:35:25;47.13;;;22.58;;
295;SDS011;132;48.770;9.200;2023-03-03T22:37:51;50.13;;;21.27;;
295;SDS011;132;48.770;9.200;2023-03-03T22:40:17;49.67;;;22.38;;
295;SDS011;132;48.770;9.200;2023-03-03T22:42:44;47.30;;;21.30;;
295;SDS011;132;48.770;9.200;2023-03-03T22:45:10;51.63;;;22.42;;
295;SDS011;132;48.770;9.200;2023-03-03T22:47:37;49.38;;;22.45;;
295;SDS011;132;48.770;9.200;2023-03-03T22:50:04;46.55;;;22.48;;